Albury
Weather
Information

and Archive.
Albury Local Internet Skycam This service provided and funded by Albury Local Internet

Help keep our weatherstation running:

Lavington Weatherstation live data - Conditions of Use

Last updated on 20-Dec-2014 at 20:40:01
Temperature
  Currently 24.9 Degrees C
  Apparent Temperature ("Wind Chill") is 22.7 degrees C
  Today has ranged from 11.6 at 06:16 to 29.5 at 17:01
  Yesterday ranged from 10.6 at 05:46 to 24.2 at 16:51
Wind
  Now:    6.5kmh, gusting to   7.2kmh from 227 degrees ( SW)
  Hour:   6.6kmh, gusting to  10.8kmh
Rainfall
   0.0mm Midnight to Midnight (ie, yesterday)
   0.0mm Since Midnight (ie, so far today)
   0.0mm 9am yesterday to 9am today
  27.4mm Total this month
Misc items
  Relative humidity is 30%
  Dewpoint is 6.1 deg C
  Estimated Cloudbase is 7700 feet
  Barometric Pressure is 1014.0 mbar
  Solar Insolation: 10 W/m^2
Top Solar flares in the last 24 hours <--- NEW
 X1.8 Flare at 11:27 today (9 hr 13 min ago)
 M1.3 Flare at 20:47 yesterday (23 hr 53 min ago)
 C9.5 Flare at 05:47 today (14 hr 53 min ago)

Last 24 hours Temperature Graph (click graph for history)
temperature

Last 24 hours Dynamic Wind display (click image for 4-hour image):
Wind Rose

Current Yarrawonga Weather Radar and Infrared Satellite Images from the BOM.

Hourly summaries in the tables below are cumulative and peak values
for the preceding hour, and instantaneous values at the hour.
So far today, 20-Dec-2014
Time   Barom.  Wind + Gust    Direction   RH   Rain    Temp.  Minimum    Maximum
01:00  1016.0   6.9  10.8kmh  155 (SSE)   50%  0.0mm   15.2  15.1@00:52 15.4@00:00
02:00  1016.0   8.1  13.3kmh  141 ( SE)   54%  0.0mm   14.3  14.4@01:57 15.2@01:00
03:00  1016.0   6.7  14.0kmh  138 ( SE)   58%  0.0mm   13.9  13.9@02:30 14.4@02:03
04:00  1016.0   4.6  10.1kmh  140 ( SE)   63%  0.0mm   13.4  13.4@03:53 14.0@03:01
05:00  1016.0   5.5   7.9kmh  114 (ESE)   68%  0.0mm   13.3  13.2@04:49 13.5@04:15
06:00  1016.0   4.5   9.4kmh  123 (ESE)   78%  0.0mm   12.4  11.7@05:46 13.3@05:00
07:00  1016.0   0.2   5.8kmh  105 (ESE)   80%  0.0mm   13.7  11.6@06:16 13.7@06:59
08:00  1017.0   3.4   7.2kmh  158 (SSE)   66%  0.0mm   15.9  13.7@07:00 15.4@07:59
09:00  1017.0   5.2  10.8kmh  214 ( SW)   56%  0.0mm   18.3  15.6@08:02 18.5@08:55
10:00  1018.0   7.2  15.5kmh   20 (NNE)   44%  0.0mm   21.8  18.3@09:00 22.4@09:58
11:00  1017.0   7.2  14.8kmh  307 ( NW)   34%  0.0mm   23.9  21.3@10:04 24.1@10:59
12:00  1017.0   7.3  16.2kmh  302 (WNW)   31%  0.0mm   25.1  22.5@11:04 26.0@11:58
13:00  1016.0   7.3  20.2kmh  334 (NNW)   30%  0.0mm   26.2  24.1@12:03 27.6@12:54
14:00  1016.0   8.2  18.0kmh  154 (SSE)   30%  0.0mm   26.3  25.3@13:10 27.1@13:28
15:00  1015.0   9.0  19.4kmh  159 (SSE)   28%  0.0mm   28.0  26.1@14:10 28.1@14:53
17:01  1014.0   9.4  20.2kmh  181 ( S )   23%  0.0mm   29.5  27.0@15:10 29.1@15:15
18:00  1013.0  11.0  20.9kmh  213 (SSW)   25%  0.0mm   28.9  28.4@17:03 29.5@17:01
19:00  1014.0   8.6  18.7kmh  195 (SSW)   25%  0.0mm   28.4  27.7@18:10 29.2@18:01
20:00  1014.0   9.0  16.9kmh  208 (SSW)   27%  0.0mm   26.6  26.7@19:56 28.4@19:00
20:40  1014.0   6.6  10.8kmh  205 (SSW)   30%  0.0mm   24.9  24.9@20:40 26.6@20:00


Summary for yesterday, 19-Dec-2014
Time   Barom.  Wind + Gust    Direction   RH   Rain    Temp.  Minimum    Maximum
01:00  1011.0  10.5  16.9kmh  228 ( SW)   71%  0.0mm   13.4  13.4@00:56 14.7@00:00
02:00  1011.0  10.0  16.2kmh  211 (SSW)   76%  0.0mm   12.9  12.8@01:46 13.4@01:00
03:00  1011.0  10.7  22.3kmh  219 ( SW)   79%  0.0mm   12.2  12.4@02:56 13.0@02:17
04:00  1011.0  10.6  18.0kmh  204 (SSW)   77%  0.0mm   12.0  12.0@03:07 12.3@03:26
05:00  1011.0   8.2  14.8kmh  217 ( SW)   69%  0.0mm   12.2  12.0@04:00 12.2@04:25
06:00  1012.0   8.3  13.3kmh  234 ( SW)   86%  0.0mm   10.8  10.6@05:46 12.2@05:00
07:00  1013.0   9.9  20.2kmh  217 ( SW)   82%  0.0mm   11.9  10.7@06:17 11.9@06:59
08:00  1014.0   6.3  14.8kmh  222 ( SW)   67%  0.0mm   14.2  11.9@07:00 14.3@07:58
09:00  1014.0   7.4  15.5kmh  119 (ESE)   53%  0.0mm   16.2  14.2@08:00 16.5@08:56
10:00  1015.0   7.6  16.2kmh  153 (SSE)   38%  0.0mm   18.7  16.2@09:00 18.5@09:53
11:00  1014.0   9.9  23.8kmh  180 ( S )   33%  0.0mm   19.6  18.3@10:02 19.9@10:41
12:00  1014.0  10.9  23.8kmh  161 (SSE)   32%  0.0mm   21.3  19.6@11:00 21.4@11:54
13:00  1014.0  12.9  28.4kmh  156 (SSE)   27%  0.0mm   21.8  20.5@12:18 22.0@12:43
14:00  1014.0  14.2  30.6kmh  172 ( S )   28%  0.0mm   22.5  21.8@13:00 23.6@13:37
15:00  1014.0  13.7  27.7kmh  233 ( SW)   24%  0.0mm   23.4  22.1@14:07 23.8@14:50
16:00  1014.0  14.7  29.9kmh  204 (SSW)   26%  0.0mm   23.4  22.6@15:53 23.9@15:30
17:00  1014.0  13.8  29.9kmh  228 ( SW)   26%  0.0mm   23.9  23.1@16:03 24.2@16:51
18:00  1014.0  15.0  29.2kmh  222 ( SW)   27%  0.0mm   23.3  23.2@17:38 23.9@17:00
19:00  1014.0  15.5  29.9kmh  221 ( SW)   30%  0.0mm   22.1  22.1@18:59 23.5@18:04
20:00  1015.0  15.4  27.0kmh  210 (SSW)   34%  0.0mm   20.2  20.3@19:56 22.1@19:00
21:00  1016.0  14.5  23.8kmh  222 ( SW)   39%  0.0mm   17.9  18.0@20:59 20.2@20:00
22:00  1016.0  12.9  24.5kmh  221 ( SW)   44%  0.0mm   16.8  16.8@21:55 17.9@21:00
23:00  1016.0   9.6  17.6kmh  214 ( SW)   47%  0.0mm   16.0  16.0@22:50 16.8@22:00
00:00  1016.0   8.4  14.0kmh  213 (SSW)   48%  0.0mm   15.4  15.4@23:46 16.0@23:00